Time;durP1;ratioP1;P1;durP2;ratioP2;P2;SDS_P1;SDS_P2;PMS_P1;PMS_P2;Temp;Humidity;BMP_temperature;BMP_pressure;BME280_temperature;BME280_humidity;BME280_pressure;Samples;Min_cycle;Max_cycle;Signal;HPM_P1;HPM_P2
2024/01/03 00:00:26;;;;;;;;;;;12.00;99.90;;;;;;7331958;19;111174;-68
2024/01/03 00:02:54;;;;;;;;;;;11.90;99.90;;;;;;7334613;19;109126;-67
2024/01/03 00:05:41;;;;;;;;;;;12.00;99.90;;;;;;7333490;19;109712;-67
2024/01/03 00:08:11;;;;;;;;;;;12.00;99.90;;;;;;7330180;19;108832;-67
2024/01/03 00:10:42;;;;;;;;;;;12.00;99.90;;;;;;7334652;19;109250;-68
2024/01/03 00:13:27;;;;;;;;;;;12.00;99.90;;;;;;7334035;19;108968;-68
2024/01/03 00:16:12;;;;;;;;;;;12.00;99.90;;;;;;7338972;19;109244;-67
2024/01/03 00:18:39;;;;;;;;;;;12.00;99.90;;;;;;7336103;19;108661;-68
2024/01/03 00:21:08;;;;;;;;;;;12.00;99.90;;;;;;7331411;19;109417;-67
2024/01/03 00:23:35;;;;;;;;;;;12.10;99.90;;;;;;7333365;19;109209;-67
2024/01/03 00:26:03;;;;;;;;;;;12.10;99.90;;;;;;7327878;19;111481;-71
2024/01/03 00:28:31;;;;;;;;;;;12.20;99.90;;;;;;7334137;19;110248;-69
2024/01/03 00:30:59;;;;;;;;;;;12.20;99.90;;;;;;7330550;19;109073;-68
2024/01/03 00:33:26;;;;;;;;;;;12.20;99.90;;;;;;7334999;19;109526;-69
2024/01/03 00:35:53;;;;;;;;;;;12.20;99.90;;;;;;7331659;19;108309;-69
2024/01/03 00:38:20;;;;;;;;;;;12.30;99.90;;;;;;7337339;19;111198;-66
2024/01/03 00:40:54;;;;;;;;;;;12.30;99.90;;;;;;7332307;19;109735;-68
2024/01/03 00:43:21;;;;;;;;;;;12.30;99.90;;;;;;7333115;19;110209;-68
2024/01/03 00:45:48;;;;;;;;;;;12.30;99.90;;;;;;7330654;19;108875;-66
2024/01/03 00:48:16;;;;;;;;;;;12.30;99.90;;;;;;7333057;19;109150;-67
2024/01/03 00:50:43;;;;;;;;;;;12.30;99.90;;;;;;7331486;19;109505;-70
2024/01/03 00:53:12;;;;;;;;;;;12.30;99.90;;;;;;7329858;19;108658;-68
2024/01/03 00:55:40;;;;;;;;;;;12.40;99.90;;;;;;7332259;19;108772;-68
2024/01/03 00:58:08;;;;;;;;;;;12.30;99.90;;;;;;7329571;19;110099;-68
2024/01/03 01:00:36;;;;;;;;;;;12.40;99.90;;;;;;7336401;19;108858;-67
2024/01/03 01:03:04;;;;;;;;;;;12.40;99.90;;;;;;7332110;19;109254;-66
2024/01/03 01:05:32;;;;;;;;;;;12.30;99.90;;;;;;7332691;19;108946;-66
2024/01/03 01:08:00;;;;;;;;;;;12.30;99.90;;;;;;7329223;19;109066;-66
2024/01/03 01:10:27;;;;;;;;;;;12.30;99.90;;;;;;7330973;19;109939;-66
2024/01/03 01:12:55;;;;;;;;;;;12.20;99.90;;;;;;7328539;19;109067;-66
2024/01/03 01:15:22;;;;;;;;;;;12.20;99.90;;;;;;7331313;19;109117;-66
2024/01/03 01:17:50;;;;;;;;;;;12.20;99.90;;;;;;7327920;19;109366;-66
2024/01/03 01:20:17;;;;;;;;;;;12.10;99.90;;;;;;7329252;19;108912;-66
2024/01/03 01:22:44;;;;;;;;;;;12.20;99.90;;;;;;7336500;19;109638;-66
2024/01/03 01:25:12;;;;;;;;;;;12.20;99.90;;;;;;7331590;19;108454;-66
2024/01/03 01:27:39;;;;;;;;;;;12.20;99.90;;;;;;7328216;19;109234;-66
2024/01/03 01:30:06;;;;;;;;;;;12.20;99.90;;;;;;7328607;19;109445;-66
2024/01/03 01:32:36;;;;;;;;;;;12.10;99.90;;;;;;7332234;19;109163;-68
2024/01/03 01:35:03;;;;;;;;;;;12.10;99.90;;;;;;7329745;19;109339;-69
2024/01/03 01:37:30;;;;;;;;;;;12.10;99.90;;;;;;7329871;19;109157;-70
2024/01/03 01:39:58;;;;;;;;;;;12.10;99.90;;;;;;7332625;19;108474;-66
2024/01/03 01:42:25;;;;;;;;;;;12.10;99.90;;;;;;7335036;19;109061;-66
2024/01/03 01:44:52;;;;;;;;;;;12.10;99.90;;;;;;7329487;19;108998;-67
2024/01/03 01:47:20;;;;;;;;;;;12.10;99.90;;;;;;7328472;19;109958;-67
2024/01/03 01:49:47;;;;;;;;;;;12.10;99.90;;;;;;7328741;19;111309;-66
2024/01/03 01:52:15;;;;;;;;;;;12.10;99.90;;;;;;7331968;19;109581;-66
2024/01/03 01:54:42;;;;;;;;;;;12.10;99.90;;;;;;7331369;19;110703;-66
2024/01/03 01:57:10;;;;;;;;;;;12.00;99.90;;;;;;7330146;19;109999;-66
2024/01/03 01:59:38;;;;;;;;;;;12.00;99.90;;;;;;7329911;19;108846;-66
2024/01/03 02:02:05;;;;;;;;;;;12.00;99.90;;;;;;7328776;19;109366;-66
2024/01/03 02:04:36;;;;;;;;;;;12.00;99.90;;;;;;7331922;19;108993;-67
2024/01/03 02:07:04;;;;;;;;;;;12.00;99.90;;;;;;7324050;19;110395;-66
2024/01/03 02:09:31;;;;;;;;;;;12.00;99.90;;;;;;7330528;19;109495;-67
2024/01/03 02:11:59;;;;;;;;;;;12.00;99.90;;;;;;7331891;19;109053;-66
2024/01/03 02:14:26;;;;;;;;;;;12.00;99.90;;;;;;7329335;19;111092;-66
2024/01/03 02:16:53;;;;;;;;;;;12.00;99.90;;;;;;7329411;19;109101;-67
2024/01/03 02:19:20;;;;;;;;;;;12.00;99.90;;;;;;7330860;19;109771;-67
2024/01/03 02:21:48;;;;;;;;;;;12.00;99.90;;;;;;7330141;19;108875;-67
2024/01/03 02:24:15;;;;;;;;;;;12.10;99.90;;;;;;7327843;19;109475;-67
2024/01/03 02:26:42;;;;;;;;;;;12.00;99.90;;;;;;7336790;19;108830;-67
2024/01/03 02:29:09;;;;;;;;;;;12.00;99.90;;;;;;7332528;19;114467;-67
2024/01/03 02:31:36;;;;;;;;;;;12.00;99.90;;;;;;7334138;19;108742;-67
2024/01/03 02:34:04;;;;;;;;;;;12.00;99.90;;;;;;7334072;19;111002;-67
2024/01/03 02:36:31;;;;;;;;;;;12.00;99.90;;;;;;7336740;19;109562;-67
2024/01/03 02:38:58;;;;;;;;;;;12.00;99.90;;;;;;7338448;19;108431;-68
2024/01/03 02:41:25;;;;;;;;;;;12.00;99.90;;;;;;7336009;19;109203;-68
2024/01/03 02:43:52;;;;;;;;;;;12.00;99.90;;;;;;7337029;19;109138;-68
2024/01/03 02:46:20;;;;;;;;;;;12.00;99.90;;;;;;7339193;19;108914;-68
2024/01/03 02:48:47;;;;;;;;;;;12.00;99.90;;;;;;7339197;19;108450;-67
2024/01/03 02:51:21;;;;;;;;;;;12.00;99.90;;;;;;7336869;19;109928;-67
2024/01/03 02:53:48;;;;;;;;;;;12.00;99.90;;;;;;7334075;19;108362;-67
2024/01/03 02:56:15;;;;;;;;;;;12.00;99.90;;;;;;7334238;19;110991;-67
2024/01/03 02:58:42;;;;;;;;;;;12.10;99.90;;;;;;7336645;19;108912;-67
2024/01/03 03:01:10;;;;;;;;;;;12.10;99.90;;;;;;7333918;19;110325;-68
2024/01/03 03:03:38;;;;;;;;;;;12.10;99.90;;;;;;7336750;19;111851;-68
2024/01/03 03:06:05;;;;;;;;;;;12.10;99.90;;;;;;7333500;19;109393;-71
2024/01/03 03:08:32;;;;;;;;;;;12.10;99.90;;;;;;7332663;19;109355;-73
2024/01/03 03:11:00;;;;;;;;;;;12.10;99.90;;;;;;7339920;19;109493;-74
2024/01/03 03:13:27;;;;;;;;;;;12.10;99.90;;;;;;7334209;19;108632;-76
2024/01/03 03:15:54;;;;;;;;;;;12.00;99.90;;;;;;7335309;19;112984;-76
2024/01/03 03:18:21;;;;;;;;;;;12.00;99.90;;;;;;7337581;19;109089;-71
2024/01/03 03:20:49;;;;;;;;;;;12.10;99.90;;;;;;7334193;19;108917;-71
2024/01/03 03:23:16;;;;;;;;;;;12.10;99.90;;;;;;7336070;19;109122;-77
2024/01/03 03:25:43;;;;;;;;;;;12.00;99.90;;;;;;7333338;19;111647;-68
2024/01/03 03:28:10;;;;;;;;;;;12.00;99.90;;;;;;7336404;19;109129;-67
2024/01/03 03:30:38;;;;;;;;;;;11.90;99.90;;;;;;7328875;19;110515;-67
2024/01/03 03:33:05;;;;;;;;;;;12.00;99.90;;;;;;7338593;19;109340;-67
2024/01/03 03:35:32;;;;;;;;;;;11.90;99.90;;;;;;7333906;19;110104;-67
2024/01/03 03:37:59;;;;;;;;;;;11.90;99.90;;;;;;7334055;19;108519;-67
2024/01/03 03:40:26;;;;;;;;;;;11.90;99.90;;;;;;7328832;19;109319;-67
2024/01/03 03:42:54;;;;;;;;;;;11.90;99.90;;;;;;7334962;19;109448;-67
2024/01/03 03:45:22;;;;;;;;;;;11.80;99.90;;;;;;7334631;19;109303;-67
2024/01/03 03:47:49;;;;;;;;;;;11.80;99.90;;;;;;7335314;19;109086;-67
2024/01/03 03:50:16;;;;;;;;;;;11.70;99.90;;;;;;7332242;19;109317;-67
2024/01/03 03:52:44;;;;;;;;;;;11.70;99.90;;;;;;7339156;19;109881;-68
2024/01/03 03:55:12;;;;;;;;;;;11.70;99.90;;;;;;7332392;19;109347;-67
2024/01/03 03:57:39;;;;;;;;;;;11.70;99.90;;;;;;7336172;19;108411;-68
2024/01/03 04:00:07;;;;;;;;;;;11.70;99.90;;;;;;7331633;19;108974;-70
2024/01/03 04:02:35;;;;;;;;;;;11.70;99.90;;;;;;7336861;19;112092;-68
2024/01/03 04:05:02;;;;;;;;;;;11.70;99.90;;;;;;7331602;19;109720;-68
2024/01/03 04:07:31;;;;;;;;;;;11.70;99.90;;;;;;7332830;19;111568;-67
2024/01/03 04:09:58;;;;;;;;;;;11.60;99.90;;;;;;7332657;19;109094;-67
2024/01/03 04:12:25;;;;;;;;;;;11.60;99.90;;;;;;7330831;19;109241;-67
2024/01/03 04:14:52;;;;;;;;;;;11.60;99.90;;;;;;7337936;19;108692;-67
2024/01/03 04:17:19;;;;;;;;;;;11.60;99.90;;;;;;7335298;19;109607;-67
2024/01/03 04:19:46;;;;;;;;;;;11.60;99.90;;;;;;7334362;19;109038;-67
2024/01/03 04:22:14;;;;;;;;;;;11.60;99.90;;;;;;7332249;19;109298;-67
2024/01/03 04:24:41;;;;;;;;;;;11.60;99.90;;;;;;7333572;19;108832;-67
2024/01/03 04:27:08;;;;;;;;;;;11.60;99.90;;;;;;7331027;19;108838;-68
2024/01/03 04:29:35;;;;;;;;;;;11.60;99.90;;;;;;7332417;19;109286;-67
2024/01/03 04:32:03;;;;;;;;;;;11.60;99.90;;;;;;7330615;19;108342;-67
2024/01/03 04:34:30;;;;;;;;;;;11.60;99.90;;;;;;7333922;19;109540;-67
2024/01/03 04:37:00;;;;;;;;;;;11.60;99.90;;;;;;7332604;19;110231;-67
2024/01/03 04:39:27;;;;;;;;;;;11.60;99.90;;;;;;7333964;19;109105;-67
2024/01/03 04:41:54;;;;;;;;;;;11.60;99.90;;;;;;7329306;19;110321;-67
2024/01/03 04:44:21;;;;;;;;;;;11.60;99.90;;;;;;7333737;19;108658;-67
2024/01/03 04:46:49;;;;;;;;;;;11.60;99.90;;;;;;7332960;19;108904;-67
2024/01/03 04:49:16;;;;;;;;;;;11.60;99.90;;;;;;7333269;19;109268;-67
2024/01/03 04:51:43;;;;;;;;;;;11.60;99.90;;;;;;7328718;19;108466;-67
2024/01/03 04:54:11;;;;;;;;;;;11.60;99.90;;;;;;7334057;19;108892;-67
2024/01/03 04:56:38;;;;;;;;;;;11.50;99.90;;;;;;7329653;19;111512;-67
2024/01/03 04:59:05;;;;;;;;;;;11.60;99.90;;;;;;7339976;19;108750;-67
2024/01/03 05:01:32;;;;;;;;;;;11.60;99.90;;;;;;7327085;19;109857;-67
2024/01/03 05:03:59;;;;;;;;;;;11.50;99.90;;;;;;7331765;19;112921;-67
2024/01/03 05:06:26;;;;;;;;;;;11.50;99.90;;;;;;7334313;19;110159;-70
2024/01/03 05:08:54;;;;;;;;;;;11.50;99.90;;;;;;7331712;19;113937;-67
2024/01/03 05:11:21;;;;;;;;;;;11.50;99.90;;;;;;7334636;19;108861;-67
2024/01/03 05:13:48;;;;;;;;;;;11.50;99.90;;;;;;7330720;19;110570;-68
2024/01/03 05:16:15;;;;;;;;;;;11.40;99.90;;;;;;7331599;19;110914;-68
2024/01/03 05:18:43;;;;;;;;;;;11.40;99.90;;;;;;7333143;19;109373;-68
2024/01/03 05:21:10;;;;;;;;;;;11.40;99.90;;;;;;7335605;19;108480;-68
2024/01/03 05:23:37;;;;;;;;;;;11.40;99.90;;;;;;7330984;19;109311;-68
2024/01/03 05:26:04;;;;;;;;;;;11.40;99.90;;;;;;7329512;19;109694;-68
2024/01/03 05:28:32;;;;;;;;;;;11.40;99.90;;;;;;7330582;19;109674;-68
2024/01/03 05:30:59;;;;;;;;;;;11.30;99.90;;;;;;7330303;19;113839;-67
2024/01/03 05:33:26;;;;;;;;;;;11.30;99.90;;;;;;7329905;19;108831;-68
2024/01/03 05:35:54;;;;;;;;;;;11.40;99.90;;;;;;7328004;19;113224;-68
2024/01/03 05:38:26;;;;;;;;;;;11.40;99.90;;;;;;7329971;19;108941;-68
2024/01/03 05:40:54;;;;;;;;;;;11.30;99.90;;;;;;7328120;19;108791;-68
2024/01/03 05:43:21;;;;;;;;;;;11.40;99.90;;;;;;7335859;19;110118;-68
2024/01/03 05:45:48;;;;;;;;;;;11.40;99.90;;;;;;7331270;19;110259;-68
2024/01/03 05:48:15;;;;;;;;;;;11.40;99.90;;;;;;7330781;19;109559;-69
2024/01/03 05:50:43;;;;;;;;;;;11.30;99.90;;;;;;7330401;19;108540;-68
2024/01/03 05:53:10;;;;;;;;;;;11.30;99.90;;;;;;7330422;19;109633;-68
2024/01/03 05:55:37;;;;;;;;;;;11.30;99.90;;;;;;7331123;19;109402;-68
2024/01/03 05:58:05;;;;;;;;;;;11.40;99.90;;;;;;7333886;19;108881;-68
2024/01/03 06:00:32;;;;;;;;;;;11.40;99.90;;;;;;7329153;19;109419;-68
2024/01/03 06:02:59;;;;;;;;;;;11.40;99.90;;;;;;7339594;19;109828;-68
2024/01/03 06:05:26;;;;;;;;;;;11.40;99.90;;;;;;7335414;19;108820;-68
2024/01/03 06:07:56;;;;;;;;;;;11.40;99.90;;;;;;7334823;19;110492;-67
2024/01/03 06:10:24;;;;;;;;;;;11.40;99.90;;;;;;7337489;19;109573;-68
2024/01/03 06:12:51;;;;;;;;;;;11.40;99.90;;;;;;7336155;19;109479;-67
2024/01/03 06:15:18;;;;;;;;;;;11.30;99.90;;;;;;7339130;19;109452;-68
2024/01/03 06:17:45;;;;;;;;;;;11.20;99.90;;;;;;7340339;19;110030;-67
2024/01/03 06:20:13;;;;;;;;;;;11.20;99.90;;;;;;7336254;19;108605;-68
2024/01/03 06:22:40;;;;;;;;;;;11.10;99.90;;;;;;7337397;19;109408;-67
2024/01/03 06:25:07;;;;;;;;;;;11.00;99.90;;;;;;7342662;19;108512;-68
2024/01/03 06:27:34;;;;;;;;;;;10.90;99.90;;;;;;7339306;19;112403;-68
2024/01/03 06:30:02;;;;;;;;;;;10.80;99.90;;;;;;7335143;19;109323;-67
2024/01/03 06:32:29;;;;;;;;;;;10.80;99.90;;;;;;7333910;19;110984;-67
2024/01/03 06:34:56;;;;;;;;;;;10.80;99.90;;;;;;7330836;19;110256;-68
2024/01/03 06:37:23;;;;;;;;;;;10.70;99.90;;;;;;7336287;19;108706;-67
2024/01/03 06:39:50;;;;;;;;;;;10.60;99.90;;;;;;7336075;19;108980;-68
2024/01/03 06:42:17;;;;;;;;;;;10.60;99.90;;;;;;7335785;19;110487;-68
2024/01/03 06:44:44;;;;;;;;;;;10.50;99.90;;;;;;7333499;19;110598;-68
2024/01/03 06:47:11;;;;;;;;;;;10.50;99.90;;;;;;7338782;19;110258;-68
2024/01/03 06:49:38;;;;;;;;;;;10.50;99.90;;;;;;7339559;19;108664;-70
2024/01/03 06:52:06;;;;;;;;;;;10.50;99.90;;;;;;7332184;19;109099;-68
2024/01/03 06:54:34;;;;;;;;;;;10.50;99.90;;;;;;7334482;19;109247;-67
2024/01/03 06:57:02;;;;;;;;;;;10.50;99.90;;;;;;7333157;19;109006;-69
2024/01/03 06:59:33;;;;;;;;;;;10.50;99.90;;;;;;7333551;19;109171;-66
2024/01/03 07:02:00;;;;;;;;;;;10.50;99.90;;;;;;7333014;19;110678;-66
2024/01/03 07:04:27;;;;;;;;;;;10.40;99.90;;;;;;7335068;19;108892;-65
2024/01/03 07:06:55;;;;;;;;;;;10.40;99.90;;;;;;7333928;19;110514;-65
2024/01/03 07:09:22;;;;;;;;;;;10.50;99.90;;;;;;7337981;19;110856;-66
2024/01/03 07:11:50;;;;;;;;;;;10.40;99.90;;;;;;7335261;19;109408;-66
2024/01/03 07:14:17;;;;;;;;;;;10.50;99.90;;;;;;7331597;19;112007;-65
2024/01/03 07:16:44;;;;;;;;;;;10.50;99.90;;;;;;7336306;19;109108;-66
2024/01/03 07:19:15;;;;;;;;;;;10.60;99.90;;;;;;7335095;19;108798;-65
2024/01/03 07:21:42;;;;;;;;;;;10.50;99.90;;;;;;7339123;19;109235;-66
2024/01/03 07:24:10;;;;;;;;;;;10.60;99.90;;;;;;7336391;19;109582;-65
2024/01/03 07:26:37;;;;;;;;;;;10.60;99.90;;;;;;7339241;19;108314;-66
2024/01/03 07:29:04;;;;;;;;;;;10.60;99.90;;;;;;7335409;19;110319;-66
2024/01/03 07:31:31;;;;;;;;;;;10.60;99.90;;;;;;7341493;19;109022;-66
2024/01/03 07:33:58;;;;;;;;;;;10.60;99.90;;;;;;7332733;19;111070;-66
2024/01/03 07:36:26;;;;;;;;;;;10.60;99.90;;;;;;7334973;19;108716;-66
2024/01/03 07:38:54;;;;;;;;;;;10.60;99.90;;;;;;7332811;19;108573;-69
2024/01/03 07:41:21;;;;;;;;;;;10.70;99.90;;;;;;7336181;19;109170;-73
2024/01/03 07:43:48;;;;;;;;;;;10.70;99.90;;;;;;7329995;19;111808;-74
2024/01/03 07:46:15;;;;;;;;;;;10.70;99.90;;;;;;7334824;19;110377;-68
2024/01/03 07:48:43;;;;;;;;;;;10.70;99.90;;;;;;7332935;19;109137;-67
2024/01/03 07:51:11;;;;;;;;;;;10.70;99.90;;;;;;7336763;19;108873;-70
2024/01/03 07:53:38;;;;;;;;;;;10.70;99.90;;;;;;7338530;19;109864;-69
2024/01/03 07:56:08;;;;;;;;;;;10.80;99.90;;;;;;7336015;19;110347;-67
2024/01/03 07:58:35;;;;;;;;;;;10.80;99.90;;;;;;7332907;19;108924;-66
2024/01/03 08:01:02;;;;;;;;;;;10.80;99.90;;;;;;7333463;19;110149;-70
2024/01/03 08:03:30;;;;;;;;;;;10.80;99.90;;;;;;7334645;19;108588;-66
2024/01/03 08:05:57;;;;;;;;;;;10.90;99.90;;;;;;7331685;19;108813;-66
2024/01/03 08:08:27;;;;;;;;;;;10.90;99.90;;;;;;7330388;19;108974;-66
2024/01/03 08:10:54;;;;;;;;;;;10.90;99.90;;;;;;7330643;19;109196;-66
2024/01/03 08:13:22;;;;;;;;;;;10.90;99.90;;;;;;7340037;19;108901;-67
2024/01/03 08:15:49;;;;;;;;;;;11.00;99.90;;;;;;7333206;19;108932;-66
2024/01/03 08:18:16;;;;;;;;;;;11.10;99.90;;;;;;7331851;19;109388;-67
2024/01/03 08:20:44;;;;;;;;;;;11.10;99.90;;;;;;7332336;19;109827;-67
2024/01/03 08:23:11;;;;;;;;;;;11.10;99.90;;;;;;7336421;19;108391;-67
2024/01/03 08:25:38;;;;;;;;;;;11.10;99.90;;;;;;7331100;19;109399;-65
2024/01/03 08:28:05;;;;;;;;;;;11.10;99.90;;;;;;7333194;19;110575;-65
2024/01/03 08:30:33;;;;;;;;;;;11.10;99.90;;;;;;7332811;19;109124;-65
2024/01/03 08:33:00;;;;;;;;;;;11.00;99.90;;;;;;7332406;19;109477;-65
2024/01/03 08:35:27;;;;;;;;;;;11.10;99.90;;;;;;7335866;19;109102;-65
2024/01/03 08:37:54;;;;;;;;;;;11.10;99.90;;;;;;7332571;19;109292;-65
2024/01/03 08:40:21;;;;;;;;;;;11.10;99.90;;;;;;7332163;19;109782;-65
2024/01/03 08:42:48;;;;;;;;;;;11.10;99.90;;;;;;7332014;19;108911;-65
2024/01/03 08:45:16;;;;;;;;;;;11.10;99.90;;;;;;7334386;19;109513;-65
2024/01/03 08:47:43;;;;;;;;;;;11.10;99.90;;;;;;7331074;19;110626;-64
2024/01/03 08:50:11;;;;;;;;;;;11.10;99.90;;;;;;7331881;19;111422;-65
2024/01/03 08:52:38;;;;;;;;;;;11.20;99.90;;;;;;7331802;19;109429;-65
2024/01/03 08:55:05;;;;;;;;;;;11.20;99.90;;;;;;7331414;19;109801;-65
2024/01/03 08:57:32;;;;;;;;;;;11.20;99.90;;;;;;7337917;19;109873;-65
2024/01/03 08:59:59;;;;;;;;;;;11.20;99.90;;;;;;7331623;19;109282;-65
2024/01/03 09:02:27;;;;;;;;;;;11.20;99.90;;;;;;7331320;19;108343;-65
2024/01/03 09:04:54;;;;;;;;;;;11.30;99.90;;;;;;7331733;19;109146;-65
2024/01/03 09:07:21;;;;;;;;;;;11.30;99.90;;;;;;7332244;19;109515;-65
2024/01/03 09:09:48;;;;;;;;;;;11.30;99.90;;;;;;7328607;19;108543;-65
2024/01/03 09:12:18;;;;;;;;;;;11.40;99.90;;;;;;7329035;19;109501;-65
2024/01/03 09:14:45;;;;;;;;;;;11.40;99.90;;;;;;7330671;19;109099;-65
2024/01/03 09:17:12;;;;;;;;;;;11.50;99.90;;;;;;7332751;19;109032;-65
2024/01/03 09:19:39;;;;;;;;;;;11.50;99.90;;;;;;7336745;19;112037;-65
2024/01/03 09:22:07;;;;;;;;;;;11.50;99.90;;;;;;7331534;19;109046;-65
2024/01/03 09:24:34;;;;;;;;;;;11.50;99.90;;;;;;7331777;19;109018;-65
2024/01/03 09:27:03;;;;;;;;;;;11.50;99.90;;;;;;7330133;19;109092;-65
2024/01/03 09:29:30;;;;;;;;;;;11.50;99.90;;;;;;7331524;19;109047;-65
2024/01/03 09:31:58;;;;;;;;;;;11.50;99.90;;;;;;7329608;19;109288;-65
2024/01/03 09:34:25;;;;;;;;;;;11.60;99.90;;;;;;7332254;19;109587;-65
2024/01/03 09:36:53;;;;;;;;;;;11.50;99.90;;;;;;7321695;19;110005;-65
2024/01/03 09:39:20;;;;;;;;;;;11.60;99.90;;;;;;7330773;19;108648;-65
2024/01/03 09:41:48;;;;;;;;;;;11.60;99.90;;;;;;7332750;19;109397;-65
2024/01/03 09:44:16;;;;;;;;;;;11.60;99.90;;;;;;7327291;19;108755;-65
2024/01/03 09:46:43;;;;;;;;;;;11.70;99.90;;;;;;7331463;19;109969;-65
2024/01/03 09:49:10;;;;;;;;;;;11.70;99.90;;;;;;7330271;19;109179;-65
2024/01/03 09:51:37;;;;;;;;;;;11.70;99.90;;;;;;7329766;19;109312;-65
2024/01/03 09:54:08;;;;;;;;;;;11.80;99.90;;;;;;7329612;19;110475;-65
2024/01/03 09:56:37;;;;;;;;;;;11.80;99.90;;;;;;7330885;19;108377;-65
2024/01/03 09:59:04;;;;;;;;;;;11.90;99.90;;;;;;7330694;19;109331;-65
2024/01/03 10:01:32;;;;;;;;;;;11.90;99.90;;;;;;7327380;19;110038;-65
2024/01/03 10:03:59;;;;;;;;;;;12.00;99.90;;;;;;7334378;19;110860;-65
2024/01/03 10:06:27;;;;;;;;;;;11.90;99.90;;;;;;7327584;19;109305;-65
2024/01/03 10:09:00;;;;;;;;;;;11.90;99.90;;;;;;7329642;19;108801;-65
2024/01/03 10:11:28;;;;;;;;;;;11.90;99.90;;;;;;7328537;19;109790;-65
2024/01/03 10:13:56;;;;;;;;;;;11.90;99.90;;;;;;7329392;19;109856;-65
2024/01/03 10:16:26;;;;;;;;;;;11.90;99.90;;;;;;7329705;19;109672;-65
2024/01/03 10:19:06;;;;;;;;;;;11.90;99.90;;;;;;7329519;19;109142;-65
2024/01/03 10:21:34;;;;;;;;;;;11.90;99.90;;;;;;7330115;19;109082;-65
2024/01/03 10:24:03;;;;;;;;;;;11.90;99.90;;;;;;7333447;19;111702;-65
2024/01/03 10:26:30;;;;;;;;;;;11.90;99.90;;;;;;7328782;19;109130;-65
2024/01/03 10:29:14;;;;;;;;;;;11.90;99.90;;;;;;7328241;19;109554;-65
2024/01/03 10:31:41;;;;;;;;;;;11.80;99.90;;;;;;7326557;19;108745;-65
2024/01/03 10:34:15;;;;;;;;;;;11.80;99.90;;;;;;7328927;19;110176;-65
2024/01/03 10:36:44;;;;;;;;;;;11.80;99.90;;;;;;7327846;19;108762;-65
2024/01/03 10:39:14;;;;;;;;;;;11.80;99.90;;;;;;7329243;19;109190;-65
2024/01/03 10:41:43;;;;;;;;;;;11.80;99.90;;;;;;7326989;19;111805;-65
2024/01/03 10:44:12;;;;;;;;;;;11.80;99.90;;;;;;7328892;19;108794;-65
2024/01/03 10:46:41;;;;;;;;;;;11.80;99.90;;;;;;7334024;19;108514;-65
2024/01/03 10:49:08;;;;;;;;;;;11.70;99.90;;;;;;7330078;19;108695;-65
2024/01/03 10:51:43;;;;;;;;;;;11.70;99.90;;;;;;7336183;19;108643;-65
2024/01/03 10:54:16;;;;;;;;;;;11.70;99.90;;;;;;7336540;19;109493;-64
2024/01/03 10:57:01;;;;;;;;;;;11.70;99.90;;;;;;7334086;19;108630;-65
2024/01/03 10:59:31;;;;;;;;;;;11.60;99.90;;;;;;7336771;19;108569;-65
2024/01/03 11:02:06;;;;;;;;;;;11.60;99.90;;;;;;7334022;19;109905;-65
2024/01/03 11:04:40;;;;;;;;;;;11.50;99.90;;;;;;7336140;19;108469;-67
2024/01/03 11:07:11;;;;;;;;;;;11.50;99.90;;;;;;7334721;19;108767;-65
2024/01/03 11:09:38;;;;;;;;;;;11.50;99.90;;;;;;7339698;19;109698;-66
2024/01/03 11:12:13;;;;;;;;;;;11.50;99.90;;;;;;7337702;19;110007;-68
2024/01/03 11:14:40;;;;;;;;;;;11.50;99.90;;;;;;7332385;19;110102;-66
2024/01/03 11:17:10;;;;;;;;;;;11.50;99.90;;;;;;7335570;19;109545;-65
2024/01/03 11:19:38;;;;;;;;;;;11.50;99.90;;;;;;7336338;19;109175;-65
2024/01/03 11:22:06;;;;;;;;;;;11.50;99.90;;;;;;7333187;19;109395;-65
2024/01/03 11:24:33;;;;;;;;;;;11.50;99.90;;;;;;7335927;19;108824;-65
2024/01/03 11:27:04;;;;;;;;;;;11.50;99.90;;;;;;7331589;19;110027;-66
2024/01/03 11:29:35;;;;;;;;;;;11.50;99.90;;;;;;7334721;19;109279;-66
2024/01/03 11:32:07;;;;;;;;;;;11.50;99.90;;;;;;7338103;19;115184;-65
2024/01/03 11:34:46;;;;;;;;;;;11.50;99.90;;;;;;7333394;19;109732;-65
2024/01/03 11:37:16;;;;;;;;;;;11.60;99.90;;;;;;7332044;19;109434;-66
2024/01/03 11:39:47;;;;;;;;;;;11.60;99.90;;;;;;7334216;19;109177;-66
2024/01/03 11:42:18;;;;;;;;;;;11.60;99.90;;;;;;7332533;19;110143;-66
2024/01/03 11:44:46;;;;;;;;;;;11.60;99.90;;;;;;7332651;19;110162;-66
2024/01/03 11:47:13;;;;;;;;;;;11.60;99.90;;;;;;7332162;19;110035;-66
2024/01/03 11:49:40;;;;;;;;;;;11.60;99.90;;;;;;7331541;19;109775;-66
2024/01/03 11:52:07;;;;;;;;;;;11.60;99.90;;;;;;7331902;19;110798;-66
2024/01/03 11:54:34;;;;;;;;;;;11.60;99.90;;;;;;7339464;19;109355;-66
2024/01/03 11:57:07;;;;;;;;;;;11.60;99.90;;;;;;7332793;19;109205;-66
2024/01/03 11:59:35;;;;;;;;;;;11.60;99.90;;;;;;7330612;19;109897;-66
2024/01/03 12:02:02;;;;;;;;;;;11.50;99.90;;;;;;7331681;19;110594;-66
2024/01/03 12:04:29;;;;;;;;;;;11.50;99.90;;;;;;7332038;19;110082;-66
2024/01/03 12:06:57;;;;;;;;;;;11.50;99.90;;;;;;7332117;19;108585;-66
2024/01/03 12:09:29;;;;;;;;;;;11.50;99.90;;;;;;7329132;19;110083;-66
2024/01/03 12:11:56;;;;;;;;;;;11.60;99.90;;;;;;7332729;19;110484;-66
2024/01/03 12:14:23;;;;;;;;;;;11.60;99.90;;;;;;7337054;19;108974;-66
2024/01/03 12:16:54;;;;;;;;;;;11.70;99.90;;;;;;7332146;19;112407;-66
2024/01/03 12:19:28;;;;;;;;;;;11.60;99.90;;;;;;7332977;19;108722;-66
2024/01/03 12:21:59;;;;;;;;;;;11.50;99.90;;;;;;7331754;19;109149;-66
2024/01/03 12:24:42;;;;;;;;;;;11.40;99.90;;;;;;7333864;19;108736;-66
2024/01/03 12:27:09;;;;;;;;;;;11.40;99.90;;;;;;7332192;19;109104;-66
2024/01/03 12:29:37;;;;;;;;;;;11.40;99.90;;;;;;7331956;19;111061;-66
2024/01/03 12:32:09;;;;;;;;;;;11.40;99.90;;;;;;7331645;19;114461;-66
2024/01/03 12:34:37;;;;;;;;;;;11.40;99.90;;;;;;7332573;19;108941;-65
2024/01/03 12:37:04;;;;;;;;;;;11.50;99.90;;;;;;7334942;19;109080;-76
2024/01/03 12:39:35;;;;;;;;;;;11.50;99.90;;;;;;7328386;19;109983;-74
2024/01/03 12:42:11;;;;;;;;;;;11.50;99.90;;;;;;7330657;19;110630;-73
2024/01/03 12:44:43;;;;;;;;;;;11.60;99.90;;;;;;7333105;19;108928;-71
2024/01/03 12:47:10;;;;;;;;;;;11.60;99.90;;;;;;7330060;19;109200;-70
2024/01/03 12:49:39;;;;;;;;;;;11.70;99.90;;;;;;7331609;19;109077;-67
2024/01/03 12:52:08;;;;;;;;;;;11.70;99.90;;;;;;7331474;19;108696;-72
2024/01/03 12:54:36;;;;;;;;;;;11.80;99.90;;;;;;7332158;19;109199;-67
2024/01/03 12:57:04;;;;;;;;;;;11.70;99.90;;;;;;7331450;19;109217;-69
2024/01/03 12:59:31;;;;;;;;;;;11.70;99.90;;;;;;7338701;19;108514;-67
2024/01/03 13:01:58;;;;;;;;;;;11.70;99.90;;;;;;7330180;19;109118;-73
2024/01/03 13:04:25;;;;;;;;;;;11.70;99.90;;;;;;7331363;19;109003;-66
2024/01/03 13:06:53;;;;;;;;;;;11.80;99.90;;;;;;7328798;19;108697;-65
2024/01/03 13:09:23;;;;;;;;;;;11.80;99.90;;;;;;7329181;19;109542;-65
2024/01/03 13:11:52;;;;;;;;;;;11.90;99.90;;;;;;7330672;19;109459;-65
2024/01/03 13:14:19;;;;;;;;;;;11.90;99.90;;;;;;7330607;19;109168;-65
2024/01/03 13:16:46;;;;;;;;;;;11.90;99.90;;;;;;7332348;19;110083;-65
2024/01/03 13:19:14;;;;;;;;;;;11.90;99.90;;;;;;7330476;19;108675;-65
2024/01/03 13:21:42;;;;;;;;;;;11.90;99.90;;;;;;7336053;19;109271;-65
2024/01/03 13:24:12;;;;;;;;;;;11.80;99.90;;;;;;7331961;19;108785;-66
2024/01/03 13:26:40;;;;;;;;;;;11.80;99.90;;;;;;7330773;19;109127;-65
2024/01/03 13:29:07;;;;;;;;;;;11.80;99.90;;;;;;7330876;19;109848;-65
2024/01/03 13:31:34;;;;;;;;;;;11.80;99.90;;;;;;7328503;19;111137;-65
2024/01/03 13:34:01;;;;;;;;;;;11.80;99.90;;;;;;7331904;19;108839;-65
2024/01/03 13:36:29;;;;;;;;;;;11.90;99.90;;;;;;7329654;19;109928;-65
2024/01/03 13:38:57;;;;;;;;;;;11.80;99.90;;;;;;7331063;19;109138;-65
2024/01/03 13:41:24;;;;;;;;;;;11.80;99.90;;;;;;7331365;19;108362;-66
2024/01/03 13:43:52;;;;;;;;;;;11.80;99.90;;;;;;7333546;19;109298;-65
2024/01/03 13:46:21;;;;;;;;;;;11.90;99.90;;;;;;7328683;19;109323;-65
2024/01/03 13:48:48;;;;;;;;;;;11.80;99.90;;;;;;7330084;19;109611;-65
2024/01/03 13:51:17;;;;;;;;;;;11.80;99.90;;;;;;7330091;19;108680;-65
2024/01/03 13:53:45;;;;;;;;;;;11.90;99.90;;;;;;7328107;19;108917;-65
2024/01/03 13:56:12;;;;;;;;;;;11.90;99.90;;;;;;7329144;19;109117;-65
2024/01/03 13:58:45;;;;;;;;;;;11.90;99.90;;;;;;7330613;19;108890;-65
2024/01/03 14:01:13;;;;;;;;;;;11.90;99.90;;;;;;7331282;19;108971;-65
2024/01/03 14:03:40;;;;;;;;;;;11.90;99.90;;;;;;7328671;19;109929;-65
2024/01/03 14:06:12;;;;;;;;;;;11.80;99.90;;;;;;7335792;19;109274;-65
2024/01/03 14:08:41;;;;;;;;;;;11.80;99.90;;;;;;7330571;19;110187;-65